Time;durP1;ratioP1;P1;durP2;ratioP2;P2;SDS_P1;SDS_P2;PMS_P1;PMS_P2;Temp;Humidity;BMP_temperature;BMP_pressure;BME280_temperature;BME280_humidity;BME280_pressure;Samples;Min_cycle;Max_cycle;Signal;HPM_P1;HPM_P2
2022/12/01 00:00:41;;;;;;;4.70;2.90;;;14.40;69.60;;;;;;5124720;28;20049;-68
2022/12/01 00:03:07;;;;;;;4.20;3.10;;;14.30;69.60;;;;;;5124770;28;20054;-68
2022/12/01 00:05:34;;;;;;;3.97;3.30;;;14.30;69.50;;;;;;5124721;28;20307;-68
2022/12/01 00:07:59;;;;;;;3.83;3.03;;;14.30;69.50;;;;;;5106422;28;20098;-68
2022/12/01 00:10:26;;;;;;;4.18;3.15;;;14.40;69.50;;;;;;5124506;28;20023;-69
2022/12/01 00:13:00;;;;;;;4.10;3.40;;;14.30;69.50;;;;;;5106197;28;20051;-69
2022/12/01 00:15:29;;;;;;;3.90;3.08;;;14.30;69.50;;;;;;5124517;28;20027;-67
2022/12/01 00:17:57;;;;;;;3.63;2.90;;;14.30;69.60;;;;;;5124434;28;20016;-68
2022/12/01 00:20:23;;;;;;;3.75;3.05;;;14.30;69.60;;;;;;5124404;28;20273;-69
2022/12/01 00:22:49;;;;;;;3.88;2.90;;;14.30;69.80;;;;;;5124317;28;20311;-68
2022/12/01 00:25:17;;;;;;;3.58;2.47;;;14.30;70.00;;;;;;5124333;28;20027;-68
2022/12/01 00:27:46;;;;;;;4.30;3.35;;;14.30;69.90;;;;;;5124248;28;20315;-68
2022/12/01 00:30:12;;;;;;;3.95;2.97;;;14.30;70.00;;;;;;5124231;28;20035;-67
2022/12/01 00:32:38;;;;;;;3.53;3.05;;;14.30;70.00;;;;;;5124142;28;20024;-68
2022/12/01 00:35:04;;;;;;;3.65;3.00;;;14.30;70.00;;;;;;5124054;28;20019;-68
2022/12/01 00:37:32;;;;;;;3.72;3.30;;;14.30;70.10;;;;;;5124105;28;20011;-68
2022/12/01 00:39:58;;;;;;;4.32;3.28;;;14.30;70.10;;;;;;5105739;28;20016;-68
2022/12/01 00:42:24;;;;;;;3.17;2.65;;;14.20;70.10;;;;;;5123830;28;20434;-68
2022/12/01 00:44:50;;;;;;;4.03;3.30;;;14.30;70.10;;;;;;5123917;28;20304;-68
2022/12/01 00:47:16;;;;;;;4.30;3.25;;;14.20;70.00;;;;;;5123891;28;20064;-68
2022/12/01 00:49:44;;;;;;;3.30;2.92;;;14.30;69.90;;;;;;5123792;28;20026;-67
2022/12/01 00:52:13;;;;;;;4.53;3.33;;;14.30;69.90;;;;;;5123693;28;20012;-69
2022/12/01 00:54:40;;;;;;;3.53;2.90;;;14.30;69.90;;;;;;5123748;28;20049;-68
2022/12/01 00:57:06;;;;;;;4.75;3.45;;;14.30;69.90;;;;;;5123728;28;20019;-68
2022/12/01 00:59:32;;;;;;;3.28;2.80;;;14.30;69.80;;;;;;5123617;28;20031;-67
2022/12/01 01:01:59;;;;;;;4.22;2.83;;;14.30;69.80;;;;;;5123344;28;20365;-68
2022/12/01 01:04:24;;;;;;;5.47;3.33;;;14.30;69.80;;;;;;5123510;28;20019;-69
2022/12/01 01:06:51;;;;;;;3.42;3.05;;;14.30;69.80;;;;;;5123546;28;20025;-68
2022/12/01 01:09:17;;;;;;;3.25;2.90;;;14.30;69.70;;;;;;5123450;28;20072;-68
2022/12/01 01:11:42;;;;;;;3.45;2.72;;;14.30;69.70;;;;;;5123442;28;20227;-68
2022/12/01 01:14:08;;;;;;;3.05;2.70;;;14.30;69.60;;;;;;5123295;28;20019;-68
2022/12/01 01:16:34;;;;;;;3.35;2.80;;;14.30;69.50;;;;;;5123334;28;20054;-70
2022/12/01 01:19:00;;;;;;;5.30;3.42;;;14.30;69.60;;;;;;5123273;28;20027;-68
2022/12/01 01:21:27;;;;;;;4.00;3.22;;;14.30;69.50;;;;;;5123094;28;20012;-68
2022/12/01 01:23:54;;;;;;;3.60;2.90;;;14.30;69.50;;;;;;5123212;28;20031;-67
2022/12/01 01:26:29;;;;;;;3.60;2.88;;;14.30;69.50;;;;;;5123244;28;20016;-68
2022/12/01 01:29:00;;;;;;;5.47;2.95;;;14.30;69.50;;;;;;5123055;28;20025;-68
2022/12/01 01:31:28;;;;;;;3.45;2.63;;;14.30;69.60;;;;;;5123034;28;20019;-68
2022/12/01 01:33:55;;;;;;;3.73;2.87;;;14.30;69.80;;;;;;5123030;28;20047;-67
2022/12/01 01:36:21;;;;;;;3.33;2.50;;;14.30;69.90;;;;;;5122665;28;20096;-68
2022/12/01 01:38:50;;;;;;;3.22;2.47;;;14.30;69.90;;;;;;5122961;28;20354;-68
2022/12/01 01:41:16;;;;;;;;;;;14.30;69.90;;;;;;5123423;28;20417;-68
2022/12/01 01:43:46;;;;;;;4.25;3.00;;;14.30;69.90;;;;;;5122921;28;19904;-67
2022/12/01 01:46:26;;;;;;;4.07;2.67;;;14.20;70.00;;;;;;5122869;28;20024;-68
2022/12/01 01:49:12;;;;;;;4.28;3.20;;;14.30;69.90;;;;;;5122875;28;20047;-68
2022/12/01 01:51:58;;;;;;;3.97;3.30;;;14.30;69.90;;;;;;5122830;28;20347;-66
2022/12/01 01:54:34;;;;;;;4.28;3.05;;;14.30;70.00;;;;;;5122448;28;20133;-66
2022/12/01 01:57:03;;;;;;;3.30;2.58;;;14.30;70.00;;;;;;5104441;28;20016;-67
2022/12/01 01:59:32;;;;;;;4.60;2.85;;;14.30;69.90;;;;;;5122712;28;20073;-66
2022/12/01 02:02:07;;;;;;;3.88;2.95;;;14.30;69.90;;;;;;5104456;28;20068;-68
2022/12/01 02:04:39;;;;;;;3.05;2.45;;;14.30;69.70;;;;;;5122632;28;20019;-67
2022/12/01 02:07:06;;;;;;;3.33;2.80;;;14.30;69.70;;;;;;5122600;28;20024;-68
2022/12/01 02:09:31;;;;;;;3.90;3.05;;;14.30;69.70;;;;;;5122572;28;20116;-68
2022/12/01 02:12:15;;;;;;;4.18;2.97;;;14.30;69.70;;;;;;5122516;28;20024;-69
2022/12/01 02:14:58;;;;;;;4.35;2.83;;;14.30;69.50;;;;;;5126221;28;20060;-67
2022/12/01 02:17:51;;;;;;;3.92;3.00;;;14.30;69.50;;;;;;5126783;28;20026;-68
2022/12/01 02:20:36;;;;;;;3.22;2.88;;;14.40;69.30;;;;;;5126668;28;20375;-68
2022/12/01 02:23:34;;;;;;;3.80;3.08;;;14.40;69.30;;;;;;5126706;28;20307;-67
2022/12/01 02:26:29;;;;;;;5.03;2.90;;;14.40;69.20;;;;;;5126722;28;20334;-67
2022/12/01 02:29:14;;;;;;;3.83;2.88;;;14.30;69.20;;;;;;5108318;28;20073;-68
2022/12/01 02:31:46;;;;;;;4.20;3.33;;;14.30;69.10;;;;;;5126529;28;20031;-66
2022/12/01 02:34:21;;;;;;;4.18;3.10;;;14.40;69.20;;;;;;5126383;28;20020;-68
2022/12/01 02:37:00;;;;;;;3.45;2.80;;;14.40;69.20;;;;;;5126450;28;20359;-68
2022/12/01 02:39:44;;;;;;;;;;;14.40;69.90;;;;;;5126859;28;20120;-67
2022/12/01 02:42:48;;;;;;;3.92;2.88;;;14.30;69.20;;;;;;5126165;28;19965;-68
2022/12/01 02:45:09;;;;;;;2.97;2.50;;;14.30;70.20;;;;;;5126014;28;20024;-69
2022/12/01 02:47:37;;;;;;;3.53;2.80;;;14.30;69.70;;;;;;5126180;28;20055;-68
2022/12/01 02:50:03;;;;;;;4.03;3.20;;;14.30;70.40;;;;;;5126018;28;20014;-68
2022/12/01 02:52:30;;;;;;;4.55;3.03;;;14.20;69.80;;;;;;5125939;28;20079;-67
2022/12/01 02:54:56;;;;;;;4.75;2.58;;;14.20;70.40;;;;;;5126007;28;20011;-67
2022/12/01 02:57:23;;;;;;;3.50;2.67;;;14.20;69.80;;;;;;5125956;28;20078;-68
2022/12/01 02:59:53;;;;;;;4.03;2.97;;;14.20;69.80;;;;;;5125875;28;20012;-68
2022/12/01 03:02:41;;;;;;;4.05;3.00;;;14.20;69.90;;;;;;5125919;28;20346;-68
2022/12/01 03:05:41;;;;;;;3.87;2.73;;;14.20;69.90;;;;;;5125876;28;20060;-67
2022/12/01 03:08:44;;;;;;;2.85;2.35;;;14.30;69.80;;;;;;5125793;28;20020;-67
2022/12/01 03:11:25;;;;;;;4.28;2.72;;;14.20;69.70;;;;;;5100961;28;20096;-68
2022/12/01 03:14:38;;;;;;;3.53;2.72;;;14.30;69.70;;;;;;5107431;28;20091;-69
2022/12/01 03:17:10;;;;;;;3.53;2.83;;;14.30;69.60;;;;;;5105921;28;20034;-69
2022/12/01 03:19:56;;;;;;;3.95;2.92;;;14.30;69.60;;;;;;5125626;28;20326;-67
2022/12/01 03:22:32;;;;;;;3.85;3.17;;;14.30;69.50;;;;;;5125498;28;20086;-67
2022/12/01 03:25:00;;;;;;;4.35;3.35;;;14.30;69.50;;;;;;5125487;28;20091;-68
2022/12/01 03:27:30;;;;;;;3.55;2.97;;;14.30;69.30;;;;;;5125486;28;20034;-67
2022/12/01 03:29:59;;;;;;;2.88;2.55;;;14.30;69.20;;;;;;5125356;28;20020;-67
2022/12/01 03:32:35;;;;;;;4.95;2.70;;;14.30;69.20;;;;;;5125163;28;20180;-67
2022/12/01 03:35:25;;;;;;;3.30;2.70;;;14.40;69.30;;;;;;5125343;28;20027;-67
2022/12/01 03:38:20;;;;;;;2.97;2.67;;;14.40;69.20;;;;;;5125234;28;20077;-68
2022/12/01 03:40:49;;;;;;;3.15;2.72;;;14.40;69.00;;;;;;5122748;28;20057;-68
2022/12/01 03:43:20;;;;;;;3.78;3.00;;;14.40;69.10;;;;;;5125132;28;20020;-68
2022/12/01 03:45:51;;;;;;;3.97;2.90;;;14.40;69.10;;;;;;5125109;28;20697;-68
2022/12/01 03:48:17;;;;;;;3.70;2.72;;;14.30;69.10;;;;;;5125028;28;20019;-68
2022/12/01 03:51:15;;;;;;;3.55;2.83;;;14.30;69.90;;;;;;5124967;28;20226;-68
2022/12/01 03:53:44;;;;;;;3.22;2.80;;;14.30;69.30;;;;;;5117486;28;20358;-67
2022/12/01 03:56:11;;;;;;;3.47;3.17;;;14.30;69.60;;;;;;5124811;28;20046;-68
2022/12/01 03:58:43;;;;;;;3.78;2.83;;;14.20;69.50;;;;;;5124823;28;20081;-68
2022/12/01 04:01:08;;;;;;;4.65;3.17;;;14.20;69.50;;;;;;5124782;28;20020;-68
2022/12/01 04:03:34;;;;;;;2.75;2.42;;;14.20;69.50;;;;;;5124812;28;20034;-68
2022/12/01 04:06:00;;;;;;;3.72;3.05;;;14.30;69.60;;;;;;5124698;28;20016;-68
2022/12/01 04:08:26;;;;;;;4.32;2.83;;;14.30;69.60;;;;;;5124578;28;20027;-68
2022/12/01 04:10:52;;;;;;;3.60;2.63;;;14.30;69.60;;;;;;5124562;28;20032;-68
2022/12/01 04:13:24;;;;;;;3.75;2.92;;;14.20;69.70;;;;;;5106297;28;20203;-68
2022/12/01 04:15:51;;;;;;;4.07;3.15;;;14.20;69.50;;;;;;5106350;28;20011;-68
2022/12/01 04:18:18;;;;;;;4.00;3.00;;;14.30;69.50;;;;;;5124402;28;20030;-67
2022/12/01 04:20:48;;;;;;;3.33;2.88;;;14.30;69.40;;;;;;5124319;28;20306;-68
2022/12/01 04:23:58;;;;;;;3.10;2.67;;;14.30;69.30;;;;;;5124290;28;20083;-68
2022/12/01 04:26:01;;;;;;;3.97;2.80;;;14.30;69.40;;;;;;5124034;28;20227;-68
2022/12/01 04:28:27;;;;;;;3.45;2.80;;;14.30;69.30;;;;;;5124149;28;20035;-66
2022/12/01 04:30:53;;;;;;;3.17;2.42;;;14.30;69.20;;;;;;5124139;28;20046;-68
2022/12/01 04:33:19;;;;;;;3.65;2.70;;;14.30;69.20;;;;;;5124024;28;20153;-68
2022/12/01 04:35:44;;;;;;;3.30;2.58;;;14.30;69.20;;;;;;5123490;28;20204;-68
2022/12/01 04:38:10;;;;;;;3.75;2.75;;;14.30;69.10;;;;;;5123973;28;20061;-67
2022/12/01 04:40:37;;;;;;;3.63;2.60;;;14.40;69.10;;;;;;5123868;28;20039;-68
2022/12/01 04:43:03;;;;;;;3.50;2.67;;;14.30;69.00;;;;;;5123701;28;20047;-67
2022/12/01 04:45:29;;;;;;;3.78;3.08;;;14.30;69.00;;;;;;5123859;28;20023;-68
2022/12/01 04:47:55;;;;;;;3.42;3.00;;;14.30;68.90;;;;;;5123818;28;20019;-68
2022/12/01 04:50:20;;;;;;;4.90;2.65;;;14.40;68.90;;;;;;5123723;28;20020;-68
2022/12/01 04:52:46;;;;;;;3.58;2.80;;;14.40;68.90;;;;;;5105342;28;20019;-67
2022/12/01 04:55:14;;;;;;;3.63;3.00;;;14.40;68.90;;;;;;5123598;28;20327;-68
2022/12/01 04:57:40;;;;;;;3.53;2.88;;;14.30;69.00;;;;;;5123550;28;20023;-67
2022/12/01 05:00:11;;;;;;;3.22;2.90;;;14.30;69.20;;;;;;5105292;28;20098;-67
2022/12/01 05:02:42;;;;;;;4.72;3.05;;;14.30;69.30;;;;;;5123555;28;20024;-69
2022/12/01 05:05:09;;;;;;;3.28;2.53;;;14.30;69.50;;;;;;5123532;28;20027;-67
2022/12/01 05:07:34;;;;;;;3.15;2.85;;;14.20;69.50;;;;;;5123345;28;20307;-68
2022/12/01 05:10:00;;;;;;;3.95;2.55;;;14.30;69.50;;;;;;5123341;28;20068;-68
2022/12/01 05:12:26;;;;;;;3.65;2.90;;;14.30;69.50;;;;;;5123189;28;20016;-69
2022/12/01 05:14:52;;;;;;;4.25;2.95;;;14.30;69.50;;;;;;5123276;28;20039;-68
2022/12/01 05:17:18;;;;;;;2.92;2.22;;;14.30;69.40;;;;;;5123240;28;20023;-67
2022/12/01 05:22:28;;;;;;;3.88;3.25;;;14.20;69.50;;;;;;5123179;28;20479;-68
2022/12/01 05:24:53;;;;;;;2.95;2.40;;;14.20;69.50;;;;;;5104935;28;20027;-68
2022/12/01 05:27:19;;;;;;;3.40;2.83;;;14.20;69.50;;;;;;5123058;28;20043;-68
2022/12/01 05:29:45;;;;;;;2.67;2.35;;;14.30;69.40;;;;;;5123007;28;20079;-69
2022/12/01 05:32:11;;;;;;;3.53;2.63;;;14.30;69.30;;;;;;5138887;27;20022;-68
2022/12/01 05:34:36;;;;;;;3.22;2.50;;;14.30;69.20;;;;;;5122829;28;20043;-68
2022/12/01 05:37:02;;;;;;;3.90;2.88;;;14.30;69.20;;;;;;5123002;28;20401;-67
2022/12/01 05:39:28;;;;;;;3.88;3.38;;;14.30;69.10;;;;;;5104652;28;20227;-68
2022/12/01 05:41:54;;;;;;;3.30;2.60;;;14.30;68.90;;;;;;5122683;28;20310;-67
2022/12/01 05:44:19;;;;;;;5.15;3.30;;;14.40;68.90;;;;;;5122773;28;20081;-68
2022/12/01 05:46:45;;;;;;;3.90;2.63;;;14.40;68.80;;;;;;5122660;28;20019;-67
2022/12/01 05:49:11;;;;;;;4.00;3.08;;;14.40;68.70;;;;;;5121883;28;20023;-69
2022/12/01 05:51:36;;;;;;;4.00;2.80;;;14.40;68.60;;;;;;5122679;28;20030;-68
2022/12/01 05:54:03;;;;;;;3.70;2.58;;;14.40;68.50;;;;;;5104325;28;20015;-67
2022/12/01 05:56:29;;;;;;;3.70;3.00;;;14.40;68.40;;;;;;5122594;28;20058;-68
2022/12/01 05:58:54;;;;;;;3.47;2.83;;;14.40;68.40;;;;;;5122608;28;20277;-67
2022/12/01 06:01:20;;;;;;;3.75;3.25;;;14.40;68.40;;;;;;5122560;28;20024;-68
2022/12/01 06:03:46;;;;;;;3.28;2.67;;;14.40;68.40;;;;;;5122562;28;20019;-68
2022/12/01 06:06:12;;;;;;;3.30;2.80;;;14.30;68.50;;;;;;5122559;28;20221;-69
2022/12/01 06:08:38;;;;;;;4.10;3.20;;;14.40;68.70;;;;;;5122511;28;20035;-69
2022/12/01 06:11:03;;;;;;;2.58;2.38;;;14.30;68.90;;;;;;5104409;28;20086;-68
2022/12/01 06:13:29;;;;;;;3.80;2.95;;;14.20;69.10;;;;;;5138389;28;20027;-67
2022/12/01 06:16:01;;;;;;;4.30;2.83;;;14.20;69.20;;;;;;5122505;28;20024;-68
2022/12/01 06:18:29;;;;;;;3.35;3.03;;;14.20;69.10;;;;;;5122567;28;20024;-68
2022/12/01 06:20:55;;;;;;;3.67;2.90;;;14.20;69.20;;;;;;5104211;28;20057;-67
2022/12/01 06:23:21;;;;;;;4.07;3.05;;;14.20;69.30;;;;;;5122288;28;20027;-67
2022/12/01 06:25:47;;;;;;;4.88;2.85;;;14.20;69.30;;;;;;5122320;28;20375;-68
2022/12/01 06:28:13;;;;;;;3.55;2.90;;;14.20;69.20;;;;;;5122346;28;20065;-67
2022/12/01 06:30:39;;;;;;;4.00;2.88;;;14.20;69.30;;;;;;5122299;28;20311;-67
2022/12/01 06:33:04;;;;;;;3.03;2.67;;;14.20;69.40;;;;;;5122259;28;20245;-67
2022/12/01 06:35:30;;;;;;;3.70;2.80;;;14.20;69.30;;;;;;5122280;28;20082;-68
2022/12/01 06:37:56;;;;;;;3.85;3.13;;;14.30;69.20;;;;;;5122211;28;20023;-66
2022/12/01 06:40:22;;;;;;;3.42;2.70;;;14.30;69.20;;;;;;5122300;28;20034;-67
2022/12/01 06:42:48;;;;;;;4.22;3.33;;;14.30;69.20;;;;;;5122066;28;20043;-68
2022/12/01 06:45:13;;;;;;;3.38;2.90;;;14.30;69.10;;;;;;5122254;28;20188;-68
2022/12/01 06:47:39;;;;;;;3.47;2.85;;;14.30;69.10;;;;;;5122239;28;20244;-67
2022/12/01 06:50:08;;;;;;;3.10;2.70;;;14.30;69.00;;;;;;5122163;28;20028;-66
2022/12/01 06:52:35;;;;;;;2.85;2.55;;;14.30;68.80;;;;;;5104465;28;20023;-68
2022/12/01 06:55:02;;;;;;;3.80;3.08;;;14.30;68.80;;;;;;5122161;28;20039;-67
2022/12/01 06:57:29;;;;;;;3.70;2.70;;;14.30;68.80;;;;;;5122039;28;20019;-67
2022/12/01 06:59:54;;;;;;;3.20;2.63;;;14.30;68.70;;;;;;5124127;28;20012;-68
2022/12/01 07:02:20;;;;;;;4.25;2.95;;;14.40;68.70;;;;;;5125909;28;20023;-67
2022/12/01 07:04:46;;;;;;;4.05;2.95;;;14.40;68.60;;;;;;5125912;28;20008;-68
2022/12/01 07:07:12;;;;;;;3.38;2.75;;;14.40;68.60;;;;;;5125789;28;20315;-68
2022/12/01 07:09:38;;;;;;;3.75;2.92;;;14.40;68.50;;;;;;5125774;28;20011;-67
2022/12/01 07:12:04;;;;;;;3.67;2.78;;;14.40;68.40;;;;;;5125801;28;20026;-68
2022/12/01 07:14:30;;;;;;;3.75;2.80;;;14.40;68.40;;;;;;5125677;28;20379;-68
2022/12/01 07:16:57;;;;;;;7.10;3.10;;;14.40;68.40;;;;;;5125661;28;20020;-67
2022/12/01 07:19:23;;;;;;;3.28;2.60;;;14.40;68.40;;;;;;5125621;28;20180;-68
2022/12/01 07:21:49;;;;;;;3.35;2.45;;;14.30;68.50;;;;;;5125532;28;20109;-68
2022/12/01 07:24:15;;;;;;;3.63;3.10;;;14.30;68.70;;;;;;5125458;28;20026;-67
2022/12/01 07:26:42;;;;;;;3.47;2.92;;;14.30;69.10;;;;;;5125412;28;20032;-67
2022/12/01 07:29:09;;;;;;;3.45;2.90;;;14.20;69.00;;;;;;5125390;28;20016;-69
2022/12/01 07:31:36;;;;;;;2.47;2.28;;;14.20;69.00;;;;;;5125350;28;20326;-68
2022/12/01 07:34:02;;;;;;;2.95;2.25;;;14.30;69.20;;;;;;5125207;28;20502;-67
2022/12/01 07:36:28;;;;;;;3.53;2.67;;;14.20;69.10;;;;;;5125247;28;20016;-68
2022/12/01 07:38:54;;;;;;;3.30;2.60;;;14.20;69.00;;;;;;5125230;28;20278;-68
2022/12/01 07:41:20;;;;;;;3.20;2.60;;;14.20;69.00;;;;;;5125045;28;20036;-68
2022/12/01 07:43:46;;;;;;;4.15;3.08;;;14.20;69.10;;;;;;5125156;28;20094;-68
2022/12/01 07:46:21;;;;;;;4.10;3.25;;;14.30;69.00;;;;;;5125084;28;20215;-67
2022/12/01 07:48:47;;;;;;;3.40;2.40;;;14.30;69.30;;;;;;5125056;28;20015;-69
2022/12/01 07:51:15;;;;;;;3.92;2.75;;;14.40;68.70;;;;;;5140925;27;20027;-67
2022/12/01 07:53:42;;;;;;;3.67;2.83;;;14.40;68.60;;;;;;5124805;28;20332;-68
2022/12/01 07:56:08;;;;;;;3.33;2.72;;;14.40;68.70;;;;;;5106650;28;20020;-67
2022/12/01 07:58:34;;;;;;;3.63;2.90;;;14.40;68.80;;;;;;5124875;28;20022;-68
2022/12/01 08:01:07;;;;;;;3.92;3.00;;;14.40;68.90;;;;;;5106545;28;20019;-68
2022/12/01 08:03:33;;;;;;;4.18;3.13;;;14.30;68.90;;;;;;5124735;28;20059;-69
2022/12/01 08:06:00;;;;;;;4.10;3.05;;;14.30;68.90;;;;;;5124679;28;20034;-68
2022/12/01 08:08:26;;;;;;;3.05;2.42;;;14.30;68.90;;;;;;5124669;28;20023;-67
2022/12/01 08:10:52;;;;;;;3.63;3.03;;;14.30;69.00;;;;;;5123668;28;20030;-67
2022/12/01 08:13:19;;;;;;;4.13;2.80;;;14.30;69.00;;;;;;5124500;28;20049;-68
2022/12/01 08:15:45;;;;;;;3.25;2.75;;;14.30;69.00;;;;;;5124547;28;20019;-68
2022/12/01 08:18:11;;;;;;;3.45;2.80;;;14.30;69.10;;;;;;5124445;28;20026;-68
2022/12/01 08:20:36;;;;;;;4.75;3.17;;;14.30;69.10;;;;;;5124400;28;20362;-67
2022/12/01 08:23:03;;;;;;;3.25;2.78;;;14.30;69.10;;;;;;5124303;28;20034;-67
2022/12/01 08:25:29;;;;;;;2.83;2.47;;;14.30;69.20;;;;;;5123962;28;20053;-68
2022/12/01 08:27:55;;;;;;;3.00;2.53;;;14.30;69.10;;;;;;5124266;28;20215;-68
2022/12/01 08:30:21;;;;;;;4.28;2.67;;;14.30;69.20;;;;;;5124268;28;20019;-68
2022/12/01 08:32:47;;;;;;;4.00;3.03;;;14.30;69.20;;;;;;5124111;28;20045;-69
2022/12/01 08:35:14;;;;;;;2.60;2.38;;;14.30;69.20;;;;;;5124149;28;20207;-68
2022/12/01 08:37:40;;;;;;;3.80;2.92;;;14.30;69.20;;;;;;5124090;28;20015;-69
2022/12/01 08:40:06;;;;;;;3.78;2.92;;;14.30;69.30;;;;;;5124006;28;20069;-68
2022/12/01 08:42:32;;;;;;;3.78;2.90;;;14.30;69.20;;;;;;5123450;28;20093;-68
2022/12/01 08:44:58;;;;;;;2.83;2.22;;;14.30;69.20;;;;;;5123974;28;20339;-67
2022/12/01 08:47:23;;;;;;;3.33;2.80;;;14.30;69.20;;;;;;5123921;28;20019;-69
2022/12/01 08:49:49;;;;;;;3.78;2.97;;;14.30;69.30;;;;;;5123808;28;20050;-68
2022/12/01 08:52:15;;;;;;;3.28;2.88;;;14.30;69.20;;;;;;5123806;28;20027;-68
2022/12/01 08:54:41;;;;;;;3.50;2.95;;;14.30;69.20;;;;;;5123686;28;20045;-69
2022/12/01 08:57:06;;;;;;;3.75;2.65;;;14.30;69.20;;;;;;5123653;28;20311;-68
2022/12/01 08:59:32;;;;;;;3.05;2.75;;;14.30;69.20;;;;;;5123602;28;20014;-69
2022/12/01 09:01:58;;;;;;;3.00;2.70;;;14.30;69.20;;;;;;5123625;28;20035;-68
2022/12/01 09:04:25;;;;;;;3.38;2.75;;;14.30;69.20;;;;;;5123533;28;20374;-68
2022/12/01 09:06:53;;;;;;;4.18;3.13;;;14.30;69.20;;;;;;5123504;28;20315;-68
2022/12/01 09:09:23;;;;;;;3.58;2.75;;;14.30;69.20;;;;;;5123515;28;20319;-69
2022/12/01 09:11:51;;;;;;;2.88;2.55;;;14.30;69.10;;;;;;5123439;28;20035;-67
2022/12/01 09:14:18;;;;;;;4.27;2.93;;;14.40;69.10;;;;;;5123260;28;20270;-67
2022/12/01 09:16:45;;;;;;;2.95;2.55;;;14.40;69.10;;;;;;5105423;28;20262;-68
2022/12/01 09:19:12;;;;;;;3.38;2.70;;;14.30;69.10;;;;;;5123244;28;20015;-68
2022/12/01 09:21:38;;;;;;;3.00;2.55;;;14.40;69.10;;;;;;5123164;28;20070;-68
2022/12/01 09:24:05;;;;;;;3.15;2.67;;;14.40;69.20;;;;;;5123126;28;20023;-67
2022/12/01 09:26:32;;;;;;;4.05;2.42;;;14.40;69.10;;;;;;5123121;28;20023;-68
2022/12/01 09:29:06;;;;;;;3.20;2.80;;;14.40;69.10;;;;;;5123093;28;20076;-69
2022/12/01 09:31:33;;;;;;;2.90;2.55;;;14.50;69.00;;;;;;5123093;28;20011;-68
2022/12/01 09:34:02;;;;;;;3.78;2.67;;;14.50;69.00;;;;;;5122914;28;20233;-67
2022/12/01 09:36:28;;;;;;;;;;;14.50;68.80;;;;;;5123391;28;20011;-69
2022/12/01 09:38:54;;;;;;;3.60;2.72;;;14.50;68.90;;;;;;5122894;28;20003;-68
2022/12/01 09:41:28;;;;;;;2.42;2.20;;;14.50;69.10;;;;;;5122730;28;20036;-68
2022/12/01 09:44:09;;;;;;;3.17;2.80;;;14.50;68.80;;;;;;5122915;28;20080;-67
2022/12/01 09:46:40;;;;;;;3.13;2.40;;;14.50;68.90;;;;;;5122837;28;20023;-67
2022/12/01 09:49:15;;;;;;;2.97;2.28;;;14.50;68.80;;;;;;5122827;28;20097;-67
2022/12/01 09:51:41;;;;;;;4.25;3.35;;;14.50;69.40;;;;;;5122833;28;20208;-67
2022/12/01 09:54:12;;;;;;;2.72;2.50;;;14.60;68.90;;;;;;5122699;28;20026;-68
2022/12/01 09:56:48;;;;;;;2.83;2.42;;;14.50;68.80;;;;;;5122720;28;20312;-68
2022/12/01 09:59:26;;;;;;;2.40;2.20;;;14.60;68.70;;;;;;5122620;28;20019;-67
2022/12/01 10:02:02;;;;;;;3.00;2.55;;;14.60;68.80;;;;;;5122689;28;20015;-67
2022/12/01 10:04:43;;;;;;;3.83;2.92;;;14.60;68.80;;;;;;5122652;28;20026;-68
2022/12/01 10:07:14;;;;;;;3.10;2.33;;;14.60;68.80;;;;;;5122666;28;20374;-68
2022/12/01 10:09:52;;;;;;;3.90;2.90;;;14.60;68.70;;;;;;5122585;28;20072;-67
2022/12/01 10:12:26;;;;;;;2.67;2.30;;;14.60;68.70;;;;;;5122663;28;20095;-67
2022/12/01 10:15:04;;;;;;;4.03;3.08;;;14.70;68.80;;;;;;5122555;28;20083;-68
2022/12/01 10:17:45;;;;;;;3.78;2.88;;;14.70;68.70;;;;;;5122549;28;20023;-68
2022/12/01 10:20:32;;;;;;;3.15;2.50;;;14.70;68.70;;;;;;5122459;28;20026;-69
2022/12/01 10:23:18;;;;;;;2.67;2.22;;;14.70;68.70;;;;;;5122436;28;20360;-68
2022/12/01 10:25:59;;;;;;;2.85;2.55;;;14.70;68.70;;;;;;5122443;28;20234;-68
2022/12/01 10:28:27;;;;;;;3.58;2.90;;;14.70;68.50;;;;;;5122346;28;20031;-68
2022/12/01 10:31:00;;;;;;;2.55;2.35;;;14.70;68.60;;;;;;5122374;28;20088;-67
2022/12/01 10:33:57;;;;;;;3.22;2.22;;;14.70;68.60;;;;;;5122226;28;20030;-67
2022/12/01 10:36:24;;;;;;;3.40;2.78;;;14.70;68.70;;;;;;5122353;28;20031;-66
2022/12/01 10:38:50;;;;;;;3.22;2.80;;;14.60;68.70;;;;;;5126393;28;20024;-67
2022/12/01 10:41:18;;;;;;;3.22;2.58;;;14.60;68.80;;;;;;5108060;28;20114;-68
2022/12/01 10:43:50;;;;;;;3.33;2.65;;;14.60;68.80;;;;;;5126410;28;20330;-68
2022/12/01 10:46:21;;;;;;;2.80;2.50;;;14.60;68.90;;;;;;5126312;28;20038;-67
2022/12/01 10:48:58;;;;;;;3.78;2.67;;;14.60;68.90;;;;;;5126272;28;20065;-67
2022/12/01 10:51:26;;;;;;;2.67;2.45;;;14.60;68.90;;;;;;5126138;28;20082;-68
2022/12/01 10:54:10;;;;;;;3.08;2.70;;;14.60;69.00;;;;;;5126024;28;20035;-68
2022/12/01 10:56:39;;;;;;;3.63;2.55;;;14.60;68.80;;;;;;5126200;28;20035;-67
2022/12/01 10:59:23;;;;;;;3.30;2.42;;;14.70;68.80;;;;;;5125951;28;20305;-69
2022/12/01 11:01:49;;;;;;;2.22;2.03;;;14.70;68.50;;;;;;5125915;28;20018;-67
2022/12/01 11:04:44;;;;;;;2.50;2.30;;;14.70;68.70;;;;;;5125902;28;20027;-67
2022/12/01 11:07:29;;;;;;;2.90;2.53;;;14.70;68.50;;;;;;5125906;28;20015;-68
2022/12/01 11:10:15;;;;;;;3.58;2.60;;;14.80;68.50;;;;;;5125903;28;20057;-68
2022/12/01 11:12:44;;;;;;;3.05;2.25;;;14.80;68.50;;;;;;5125705;28;20019;-68
2022/12/01 11:15:37;;;;;;;4.38;3.22;;;14.80;68.40;;;;;;5125735;28;20022;-68
2022/12/01 11:18:27;;;;;;;3.00;2.50;;;14.80;68.40;;;;;;5117300;28;20220;-68
2022/12/01 11:21:38;;;;;;;2.95;2.47;;;14.80;68.30;;;;;;5125621;28;20038;-68
2022/12/01 11:24:25;;;;;;;2.78;2.15;;;14.80;68.40;;;;;;5103063;28;20107;-68
2022/12/01 11:26:51;;;;;;;3.75;3.08;;;14.80;68.50;;;;;;5125509;28;20065;-68
2022/12/01 11:29:37;;;;;;;3.20;2.78;;;14.80;68.70;;;;;;5107174;28;20023;-69
2022/12/01 11:32:33;;;;;;;2.60;2.40;;;14.80;68.50;;;;;;5125433;28;20091;-68
2022/12/01 11:35:14;;;;;;;3.15;2.45;;;14.80;68.50;;;;;;5108408;28;20040;-68
2022/12/01 11:37:52;;;;;;;2.58;2.20;;;14.80;68.60;;;;;;5125305;28;20015;-68
2022/12/01 11:40:29;;;;;;;3.17;2.53;;;14.70;68.60;;;;;;5125213;28;20019;-68
2022/12/01 11:43:03;;;;;;;3.42;2.78;;;14.70;68.60;;;;;;5106727;28;20392;-68
2022/12/01 11:45:38;;;;;;;2.85;2.42;;;14.80;68.70;;;;;;5123961;28;20016;-67
2022/12/01 11:48:14;;;;;;;3.38;2.40;;;14.70;68.60;;;;;;5125019;28;20053;-69
2022/12/01 11:50:43;;;;;;;2.70;2.40;;;14.80;68.70;;;;;;5125017;28;20008;-69
2022/12/01 11:53:47;;;;;;;2.78;2.35;;;14.70;68.60;;;;;;5124859;28;20037;-68
2022/12/01 11:56:27;;;;;;;2.85;2.30;;;14.70;68.50;;;;;;5124985;28;20027;-68
2022/12/01 11:59:09;;;;;;;3.92;2.67;;;14.70;68.70;;;;;;5124801;28;20015;-68
2022/12/01 12:02:02;;;;;;;3.50;2.92;;;14.70;68.70;;;;;;5124831;28;20256;-67
2022/12/01 12:04:50;;;;;;;2.80;2.35;;;14.70;68.70;;;;;;5124813;28;20020;-68
2022/12/01 12:07:37;;;;;;;3.70;3.30;;;14.70;68.80;;;;;;5124763;28;20061;-68
2022/12/01 12:10:27;;;;;;;3.10;2.53;;;14.80;68.70;;;;;;5124687;28;20063;-67
2022/12/01 12:13:14;;;;;;;3.28;2.60;;;14.70;68.50;;;;;;5124529;28;20046;-68
2022/12/01 12:16:10;;;;;;;3.05;2.70;;;14.70;68.50;;;;;;5124528;28;20330;-67
2022/12/01 12:19:05;;;;;;;3.08;2.30;;;14.70;68.60;;;;;;5124518;28;20311;-67
2022/12/01 12:21:51;;;;;;;3.15;2.55;;;14.70;68.70;;;;;;5109944;28;20027;-67
2022/12/01 12:24:27;;;;;;;3.10;2.53;;;14.70;68.70;;;;;;5124406;28;20311;-68
2022/12/01 12:27:05;;;;;;;3.17;2.60;;;14.80;68.60;;;;;;5124299;28;20054;-67
2022/12/01 12:29:37;;;;;;;3.10;2.53;;;14.70;68.50;;;;;;5124309;28;20023;-68
2022/12/01 12:32:36;;;;;;;3.03;2.55;;;14.80;68.50;;;;;;5124142;28;20028;-67
2022/12/01 12:35:20;;;;;;;3.40;2.67;;;14.90;68.30;;;;;;5124197;28;20024;-68
2022/12/01 12:38:23;;;;;;;3.58;2.47;;;14.80;68.10;;;;;;5124113;28;20019;-68
2022/12/01 12:41:15;;;;;;;2.50;2.30;;;14.90;67.90;;;;;;5124062;28;20026;-68
2022/12/01 12:44:01;;;;;;;2.20;2.00;;;15.00;67.80;;;;;;5124036;28;20047;-68
2022/12/01 12:46:52;;;;;;;3.78;2.88;;;15.00;67.70;;;;;;5082340;28;20024;-68
2022/12/01 12:49:20;;;;;;;3.33;2.50;;;15.00;67.60;;;;;;5123908;28;20056;-69
2022/12/01 12:51:52;;;;;;;3.35;2.65;;;15.10;67.60;;;;;;5123794;28;20053;-68
2022/12/01 12:54:24;;;;;;;3.50;3.20;;;15.10;67.30;;;;;;5123834;28;20038;-67
2022/12/01 12:56:57;;;;;;;2.90;2.50;;;15.20;67.10;;;;;;5105126;28;20218;-67
2022/12/01 12:59:43;;;;;;;2.40;2.20;;;15.20;66.90;;;;;;5123702;28;20250;-68
2022/12/01 13:02:37;;;;;;;3.05;2.53;;;15.30;66.80;;;;;;5105450;28;20019;-69
2022/12/01 13:05:29;;;;;;;3.22;2.83;;;15.30;66.70;;;;;;5123617;28;20326;-67
2022/12/01 13:08:02;;;;;;;3.28;2.50;;;15.30;66.70;;;;;;5123536;28;20015;-68
2022/12/01 13:10:42;;;;;;;3.20;2.33;;;15.40;66.70;;;;;;5123523;28;20140;-69
2022/12/01 13:13:29;;;;;;;4.10;2.60;;;15.40;66.50;;;;;;5123390;28;20084;-68
2022/12/01 13:15:57;;;;;;;3.60;2.40;;;15.40;66.50;;;;;;5123345;28;20016;-67